sensor_id;sensor_type;location;lat;lon;timestamp;P1;durP1;ratioP1;P2;durP2;ratioP2
53022;SDS011;38913;44.338;11.206;2023-03-14T00:01:16;4.57;;;2.05;;
53022;SDS011;38913;44.338;11.206;2023-03-14T00:03:42;5.78;;;2.05;;
53022;SDS011;38913;44.338;11.206;2023-03-14T00:06:08;16.42;;;6.85;;
53022;SDS011;38913;44.338;11.206;2023-03-14T00:08:34;2.83;;;1.45;;
53022;SDS011;38913;44.338;11.206;2023-03-14T00:11:09;3.40;;;1.85;;
53022;SDS011;38913;44.338;11.206;2023-03-14T00:16:04;5.47;;;1.43;;
53022;SDS011;38913;44.338;11.206;2023-03-14T00:18:29;4.50;;;1.30;;
53022;SDS011;38913;44.338;11.206;2023-03-14T00:20:57;3.30;;;1.20;;
53022;SDS011;38913;44.338;11.206;2023-03-14T00:23:22;5.28;;;1.52;;
53022;SDS011;38913;44.338;11.206;2023-03-14T00:25:47;7.50;;;1.47;;
53022;SDS011;38913;44.338;11.206;2023-03-14T00:28:12;6.07;;;1.27;;
53022;SDS011;38913;44.338;11.206;2023-03-14T00:30:38;4.67;;;1.40;;
53022;SDS011;38913;44.338;11.206;2023-03-14T00:33:03;2.30;;;1.00;;
53022;SDS011;38913;44.338;11.206;2023-03-14T00:35:28;5.68;;;1.33;;
53022;SDS011;38913;44.338;11.206;2023-03-14T00:37:53;5.23;;;1.30;;
53022;SDS011;38913;44.338;11.206;2023-03-14T00:40:19;2.13;;;1.40;;
53022;SDS011;38913;44.338;11.206;2023-03-14T00:42:44;3.17;;;1.30;;
53022;SDS011;38913;44.338;11.206;2023-03-14T00:45:09;6.03;;;1.53;;
53022;SDS011;38913;44.338;11.206;2023-03-14T00:47:35;4.28;;;1.50;;
53022;SDS011;38913;44.338;11.206;2023-03-14T00:50:00;2.13;;;1.00;;
53022;SDS011;38913;44.338;11.206;2023-03-14T00:52:26;5.03;;;1.20;;
53022;SDS011;38913;44.338;11.206;2023-03-14T00:54:51;7.28;;;1.55;;
53022;SDS011;38913;44.338;11.206;2023-03-14T00:57:16;3.50;;;1.20;;
53022;SDS011;38913;44.338;11.206;2023-03-14T00:59:42;3.80;;;1.30;;
53022;SDS011;38913;44.338;11.206;2023-03-14T01:02:07;6.67;;;1.80;;
53022;SDS011;38913;44.338;11.206;2023-03-14T01:04:32;9.10;;;1.60;;
53022;SDS011;38913;44.338;11.206;2023-03-14T01:06:58;4.22;;;1.33;;
53022;SDS011;38913;44.338;11.206;2023-03-14T01:09:23;5.38;;;1.10;;
53022;SDS011;38913;44.338;11.206;2023-03-14T01:11:48;4.35;;;1.27;;
53022;SDS011;38913;44.338;11.206;2023-03-14T01:14:14;6.33;;;1.30;;
53022;SDS011;38913;44.338;11.206;2023-03-14T01:16:39;6.72;;;1.30;;
53022;SDS011;38913;44.338;11.206;2023-03-14T01:19:05;5.17;;;1.17;;
53022;SDS011;38913;44.338;11.206;2023-03-14T01:21:31;4.77;;;1.00;;
53022;SDS011;38913;44.338;11.206;2023-03-14T01:23:57;6.03;;;1.10;;
53022;SDS011;38913;44.338;11.206;2023-03-14T01:26:24;3.72;;;1.50;;
53022;SDS011;38913;44.338;11.206;2023-03-14T01:28:50;6.13;;;1.33;;
53022;SDS011;38913;44.338;11.206;2023-03-14T01:31:16;4.72;;;1.20;;
53022;SDS011;38913;44.338;11.206;2023-03-14T01:33:42;4.55;;;1.00;;
53022;SDS011;38913;44.338;11.206;2023-03-14T01:36:07;6.20;;;1.10;;
53022;SDS011;38913;44.338;11.206;2023-03-14T01:38:34;8.85;;;1.65;;
53022;SDS011;38913;44.338;11.206;2023-03-14T01:41:00;4.18;;;1.20;;
53022;SDS011;38913;44.338;11.206;2023-03-14T01:43:26;4.28;;;1.00;;
53022;SDS011;38913;44.338;11.206;2023-03-14T01:46:06;5.57;;;1.10;;
53022;SDS011;38913;44.338;11.206;2023-03-14T01:51:28;4.78;;;1.75;;
53022;SDS011;38913;44.338;11.206;2023-03-14T01:53:57;2.40;;;0.90;;
53022;SDS011;38913;44.338;11.206;2023-03-14T01:56:24;5.38;;;1.83;;
53022;SDS011;38913;44.338;11.206;2023-03-14T01:58:50;7.18;;;1.23;;
53022;SDS011;38913;44.338;11.206;2023-03-14T02:01:17;3.75;;;1.20;;
53022;SDS011;38913;44.338;11.206;2023-03-14T02:03:46;4.97;;;0.93;;
53022;SDS011;38913;44.338;11.206;2023-03-14T02:06:12;4.32;;;1.85;;
53022;SDS011;38913;44.338;11.206;2023-03-14T02:08:39;2.72;;;1.00;;
53022;SDS011;38913;44.338;11.206;2023-03-14T02:11:05;6.43;;;1.00;;
53022;SDS011;38913;44.338;11.206;2023-03-14T02:13:32;4.43;;;1.00;;
53022;SDS011;38913;44.338;11.206;2023-03-14T02:15:57;2.07;;;0.73;;
53022;SDS011;38913;44.338;11.206;2023-03-14T02:18:22;3.83;;;1.10;;
53022;SDS011;38913;44.338;11.206;2023-03-14T02:20:53;2.70;;;0.88;;
53022;SDS011;38913;44.338;11.206;2023-03-14T02:23:29;4.05;;;0.90;;
53022;SDS011;38913;44.338;11.206;2023-03-14T02:26:15;5.05;;;1.40;;
53022;SDS011;38913;44.338;11.206;2023-03-14T02:28:42;6.43;;;1.10;;
53022;SDS011;38913;44.338;11.206;2023-03-14T02:31:07;4.28;;;0.80;;
53022;SDS011;38913;44.338;11.206;2023-03-14T02:33:33;6.53;;;1.10;;
53022;SDS011;38913;44.338;11.206;2023-03-14T02:36:00;5.25;;;1.45;;
53022;SDS011;38913;44.338;11.206;2023-03-14T02:38:28;2.75;;;0.82;;
53022;SDS011;38913;44.338;11.206;2023-03-14T02:40:55;3.63;;;1.10;;
53022;SDS011;38913;44.338;11.206;2023-03-14T02:43:20;1.93;;;0.70;;
53022;SDS011;38913;44.338;11.206;2023-03-14T02:45:46;3.35;;;0.80;;
53022;SDS011;38913;44.338;11.206;2023-03-14T02:48:16;3.75;;;0.95;;
53022;SDS011;38913;44.338;11.206;2023-03-14T02:50:42;3.33;;;0.88;;
53022;SDS011;38913;44.338;11.206;2023-03-14T02:53:08;4.20;;;0.82;;
53022;SDS011;38913;44.338;11.206;2023-03-14T02:55:33;1.07;;;0.47;;
53022;SDS011;38913;44.338;11.206;2023-03-14T02:57:59;2.53;;;0.60;;
53022;SDS011;38913;44.338;11.206;2023-03-14T03:00:24;2.22;;;0.68;;
53022;SDS011;38913;44.338;11.206;2023-03-14T03:02:49;0.75;;;0.50;;
53022;SDS011;38913;44.338;11.206;2023-03-14T03:05:15;6.40;;;0.80;;
53022;SDS011;38913;44.338;11.206;2023-03-14T03:07:40;1.35;;;0.68;;
53022;SDS011;38913;44.338;11.206;2023-03-14T03:10:05;2.90;;;0.83;;
53022;SDS011;38913;44.338;11.206;2023-03-14T03:12:31;1.13;;;0.70;;
53022;SDS011;38913;44.338;11.206;2023-03-14T03:14:56;1.83;;;0.87;;
53022;SDS011;38913;44.338;11.206;2023-03-14T03:17:21;3.13;;;0.60;;
53022;SDS011;38913;44.338;11.206;2023-03-14T03:19:46;1.83;;;0.60;;
53022;SDS011;38913;44.338;11.206;2023-03-14T03:22:11;4.50;;;0.77;;
53022;SDS011;38913;44.338;11.206;2023-03-14T03:24:37;3.20;;;1.00;;
53022;SDS011;38913;44.338;11.206;2023-03-14T03:27:02;3.30;;;0.70;;
53022;SDS011;38913;44.338;11.206;2023-03-14T03:29:27;3.50;;;1.00;;
53022;SDS011;38913;44.338;11.206;2023-03-14T03:31:53;0.95;;;0.63;;
53022;SDS011;38913;44.338;11.206;2023-03-14T03:34:18;6.00;;;0.83;;
53022;SDS011;38913;44.338;11.206;2023-03-14T03:36:43;2.58;;;0.73;;
53022;SDS011;38913;44.338;11.206;2023-03-14T03:39:09;1.38;;;0.52;;
53022;SDS011;38913;44.338;11.206;2023-03-14T03:41:34;4.85;;;1.10;;
53022;SDS011;38913;44.338;11.206;2023-03-14T03:43:59;4.82;;;1.20;;
53022;SDS011;38913;44.338;11.206;2023-03-14T03:46:25;2.22;;;0.63;;
53022;SDS011;38913;44.338;11.206;2023-03-14T03:48:57;5.13;;;1.40;;
53022;SDS011;38913;44.338;11.206;2023-03-14T03:51:22;2.28;;;0.70;;
53022;SDS011;38913;44.338;11.206;2023-03-14T03:53:48;4.68;;;1.70;;
53022;SDS011;38913;44.338;11.206;2023-03-14T03:56:13;3.57;;;0.90;;
53022;SDS011;38913;44.338;11.206;2023-03-14T03:58:38;3.53;;;0.80;;
53022;SDS011;38913;44.338;11.206;2023-03-14T04:01:04;3.03;;;0.87;;
53022;SDS011;38913;44.338;11.206;2023-03-14T04:03:29;3.28;;;0.85;;
53022;SDS011;38913;44.338;11.206;2023-03-14T04:06:01;2.73;;;0.70;;
53022;SDS011;38913;44.338;11.206;2023-03-14T04:08:27;2.60;;;0.93;;
53022;SDS011;38913;44.338;11.206;2023-03-14T04:10:56;4.18;;;0.80;;
53022;SDS011;38913;44.338;11.206;2023-03-14T04:13:22;3.38;;;1.00;;
53022;SDS011;38913;44.338;11.206;2023-03-14T04:15:47;7.53;;;1.40;;
53022;SDS011;38913;44.338;11.206;2023-03-14T04:18:12;2.40;;;0.80;;
53022;SDS011;38913;44.338;11.206;2023-03-14T04:20:37;2.33;;;0.80;;
53022;SDS011;38913;44.338;11.206;2023-03-14T04:23:02;4.83;;;1.67;;
53022;SDS011;38913;44.338;11.206;2023-03-14T04:25:28;4.13;;;1.10;;
53022;SDS011;38913;44.338;11.206;2023-03-14T04:27:53;5.60;;;1.23;;
53022;SDS011;38913;44.338;11.206;2023-03-14T04:30:18;3.70;;;1.00;;
53022;SDS011;38913;44.338;11.206;2023-03-14T04:32:43;3.80;;;1.02;;
53022;SDS011;38913;44.338;11.206;2023-03-14T04:35:09;4.93;;;0.97;;
53022;SDS011;38913;44.338;11.206;2023-03-14T04:37:34;6.65;;;1.52;;
53022;SDS011;38913;44.338;11.206;2023-03-14T04:39:59;4.72;;;1.10;;
53022;SDS011;38913;44.338;11.206;2023-03-14T04:42:25;3.08;;;0.70;;
53022;SDS011;38913;44.338;11.206;2023-03-14T04:44:50;4.33;;;1.10;;
53022;SDS011;38913;44.338;11.206;2023-03-14T04:47:16;3.67;;;1.10;;
53022;SDS011;38913;44.338;11.206;2023-03-14T04:49:41;3.05;;;0.90;;
53022;SDS011;38913;44.338;11.206;2023-03-14T04:52:06;4.67;;;1.27;;
53022;SDS011;38913;44.338;11.206;2023-03-14T04:54:31;4.07;;;1.00;;
53022;SDS011;38913;44.338;11.206;2023-03-14T04:56:57;3.07;;;0.73;;
53022;SDS011;38913;44.338;11.206;2023-03-14T04:59:22;7.47;;;1.35;;
53022;SDS011;38913;44.338;11.206;2023-03-14T05:01:47;5.10;;;1.10;;
53022;SDS011;38913;44.338;11.206;2023-03-14T05:04:14;3.13;;;0.90;;
53022;SDS011;38913;44.338;11.206;2023-03-14T05:06:39;2.70;;;0.97;;
53022;SDS011;38913;44.338;11.206;2023-03-14T05:09:05;2.93;;;0.90;;
53022;SDS011;38913;44.338;11.206;2023-03-14T05:11:30;6.87;;;1.00;;
53022;SDS011;38913;44.338;11.206;2023-03-14T05:13:55;2.43;;;0.90;;
53022;SDS011;38913;44.338;11.206;2023-03-14T05:16:20;3.70;;;1.42;;
53022;SDS011;38913;44.338;11.206;2023-03-14T05:18:46;4.07;;;1.40;;
53022;SDS011;38913;44.338;11.206;2023-03-14T05:21:11;5.27;;;1.17;;
53022;SDS011;38913;44.338;11.206;2023-03-14T05:23:36;5.40;;;1.35;;
53022;SDS011;38913;44.338;11.206;2023-03-14T05:26:01;2.37;;;1.20;;
53022;SDS011;38913;44.338;11.206;2023-03-14T05:28:27;4.90;;;1.00;;
53022;SDS011;38913;44.338;11.206;2023-03-14T05:30:53;2.53;;;0.80;;
53022;SDS011;38913;44.338;11.206;2023-03-14T05:33:18;3.20;;;0.90;;
53022;SDS011;38913;44.338;11.206;2023-03-14T05:35:43;4.00;;;1.30;;
53022;SDS011;38913;44.338;11.206;2023-03-14T05:38:08;6.23;;;1.50;;
53022;SDS011;38913;44.338;11.206;2023-03-14T05:40:34;5.60;;;1.27;;
53022;SDS011;38913;44.338;11.206;2023-03-14T05:42:59;4.32;;;1.10;;
53022;SDS011;38913;44.338;11.206;2023-03-14T05:45:24;4.60;;;1.00;;
53022;SDS011;38913;44.338;11.206;2023-03-14T05:47:50;5.47;;;1.33;;
53022;SDS011;38913;44.338;11.206;2023-03-14T05:50:15;6.10;;;1.60;;
53022;SDS011;38913;44.338;11.206;2023-03-14T05:52:40;4.70;;;1.03;;
53022;SDS011;38913;44.338;11.206;2023-03-14T05:55:05;6.70;;;1.33;;
53022;SDS011;38913;44.338;11.206;2023-03-14T05:57:31;4.72;;;1.08;;
53022;SDS011;38913;44.338;11.206;2023-03-14T05:59:56;4.63;;;1.45;;
53022;SDS011;38913;44.338;11.206;2023-03-14T06:02:21;8.70;;;1.60;;
53022;SDS011;38913;44.338;11.206;2023-03-14T06:04:46;5.20;;;1.13;;
53022;SDS011;38913;44.338;11.206;2023-03-14T06:07:12;5.15;;;1.02;;
53022;SDS011;38913;44.338;11.206;2023-03-14T06:09:37;4.23;;;1.50;;
53022;SDS011;38913;44.338;11.206;2023-03-14T06:12:03;6.25;;;1.55;;
53022;SDS011;38913;44.338;11.206;2023-03-14T06:14:28;6.85;;;1.85;;
53022;SDS011;38913;44.338;11.206;2023-03-14T06:16:53;22.43;;;2.30;;
53022;SDS011;38913;44.338;11.206;2023-03-14T06:19:19;10.63;;;1.67;;
53022;SDS011;38913;44.338;11.206;2023-03-14T06:21:46;33.92;;;4.07;;
53022;SDS011;38913;44.338;11.206;2023-03-14T06:24:11;5.50;;;1.38;;
53022;SDS011;38913;44.338;11.206;2023-03-14T06:26:36;4.32;;;1.20;;
53022;SDS011;38913;44.338;11.206;2023-03-14T06:29:02;5.80;;;1.47;;
53022;SDS011;38913;44.338;11.206;2023-03-14T06:31:31;5.82;;;1.75;;
53022;SDS011;38913;44.338;11.206;2023-03-14T06:33:56;4.50;;;1.65;;
53022;SDS011;38913;44.338;11.206;2023-03-14T06:36:22;5.65;;;1.40;;
53022;SDS011;38913;44.338;11.206;2023-03-14T06:38:47;4.70;;;1.50;;
53022;SDS011;38913;44.338;11.206;2023-03-14T06:41:12;3.45;;;1.40;;
53022;SDS011;38913;44.338;11.206;2023-03-14T06:43:38;4.37;;;1.20;;
53022;SDS011;38913;44.338;11.206;2023-03-14T06:46:03;6.10;;;1.65;;
53022;SDS011;38913;44.338;11.206;2023-03-14T06:48:29;3.97;;;1.33;;
53022;SDS011;38913;44.338;11.206;2023-03-14T06:50:54;4.18;;;1.30;;
53022;SDS011;38913;44.338;11.206;2023-03-14T06:53:20;5.47;;;1.60;;
53022;SDS011;38913;44.338;11.206;2023-03-14T06:55:45;5.43;;;1.50;;
53022;SDS011;38913;44.338;11.206;2023-03-14T06:58:10;3.45;;;1.35;;
53022;SDS011;38913;44.338;11.206;2023-03-14T07:00:36;5.20;;;1.30;;
53022;SDS011;38913;44.338;11.206;2023-03-14T07:03:01;6.25;;;1.40;;
53022;SDS011;38913;44.338;11.206;2023-03-14T07:05:26;6.33;;;2.30;;
53022;SDS011;38913;44.338;11.206;2023-03-14T07:07:52;8.50;;;1.45;;
53022;SDS011;38913;44.338;11.206;2023-03-14T07:10:17;6.23;;;1.77;;
53022;SDS011;38913;44.338;11.206;2023-03-14T07:12:42;7.78;;;1.90;;
53022;SDS011;38913;44.338;11.206;2023-03-14T07:15:08;5.37;;;1.87;;
53022;SDS011;38913;44.338;11.206;2023-03-14T07:17:33;4.38;;;1.50;;
53022;SDS011;38913;44.338;11.206;2023-03-14T07:19:58;5.57;;;1.63;;
53022;SDS011;38913;44.338;11.206;2023-03-14T07:22:24;4.57;;;1.65;;
53022;SDS011;38913;44.338;11.206;2023-03-14T07:24:49;5.65;;;2.00;;
53022;SDS011;38913;44.338;11.206;2023-03-14T07:27:15;8.77;;;1.87;;
53022;SDS011;38913;44.338;11.206;2023-03-14T07:29:40;5.37;;;1.40;;
53022;SDS011;38913;44.338;11.206;2023-03-14T07:32:05;5.00;;;1.50;;
53022;SDS011;38913;44.338;11.206;2023-03-14T07:34:30;6.47;;;1.50;;
53022;SDS011;38913;44.338;11.206;2023-03-14T07:36:56;5.57;;;1.70;;
53022;SDS011;38913;44.338;11.206;2023-03-14T07:39:21;6.40;;;1.80;;
53022;SDS011;38913;44.338;11.206;2023-03-14T07:41:46;8.20;;;1.87;;
53022;SDS011;38913;44.338;11.206;2023-03-14T07:44:11;4.38;;;1.50;;
53022;SDS011;38913;44.338;11.206;2023-03-14T07:46:37;3.72;;;1.58;;
53022;SDS011;38913;44.338;11.206;2023-03-14T07:49:02;3.50;;;1.43;;
53022;SDS011;38913;44.338;11.206;2023-03-14T07:51:27;3.67;;;1.40;;
53022;SDS011;38913;44.338;11.206;2023-03-14T07:53:52;3.73;;;1.13;;
53022;SDS011;38913;44.338;11.206;2023-03-14T07:56:18;3.33;;;1.10;;
53022;SDS011;38913;44.338;11.206;2023-03-14T07:58:43;3.30;;;1.30;;
53022;SDS011;38913;44.338;11.206;2023-03-14T08:01:08;4.90;;;1.50;;
53022;SDS011;38913;44.338;11.206;2023-03-14T08:03:34;7.82;;;1.30;;
53022;SDS011;38913;44.338;11.206;2023-03-14T08:05:59;2.83;;;1.10;;
53022;SDS011;38913;44.338;11.206;2023-03-14T08:08:24;3.77;;;1.20;;
53022;SDS011;38913;44.338;11.206;2023-03-14T08:10:50;3.15;;;1.10;;
53022;SDS011;38913;44.338;11.206;2023-03-14T08:13:15;5.87;;;1.60;;
53022;SDS011;38913;44.338;11.206;2023-03-14T08:15:40;8.57;;;1.67;;
53022;SDS011;38913;44.338;11.206;2023-03-14T08:18:06;4.47;;;1.63;;
53022;SDS011;38913;44.338;11.206;2023-03-14T08:20:31;5.28;;;1.50;;
53022;SDS011;38913;44.338;11.206;2023-03-14T08:22:57;4.15;;;1.60;;
53022;SDS011;38913;44.338;11.206;2023-03-14T08:25:23;4.47;;;1.60;;
53022;SDS011;38913;44.338;11.206;2023-03-14T08:27:48;5.90;;;1.63;;
53022;SDS011;38913;44.338;11.206;2023-03-14T08:30:15;5.78;;;1.40;;
53022;SDS011;38913;44.338;11.206;2023-03-14T08:32:40;6.20;;;1.75;;
53022;SDS011;38913;44.338;11.206;2023-03-14T08:35:06;6.47;;;2.25;;
53022;SDS011;38913;44.338;11.206;2023-03-14T08:37:32;4.43;;;1.58;;
53022;SDS011;38913;44.338;11.206;2023-03-14T08:39:57;7.60;;;1.58;;
53022;SDS011;38913;44.338;11.206;2023-03-14T08:42:22;7.57;;;2.03;;
53022;SDS011;38913;44.338;11.206;2023-03-14T08:44:47;5.63;;;1.50;;
53022;SDS011;38913;44.338;11.206;2023-03-14T08:47:12;7.03;;;2.40;;
53022;SDS011;38913;44.338;11.206;2023-03-14T08:49:38;3.27;;;1.60;;
53022;SDS011;38913;44.338;11.206;2023-03-14T08:52:03;6.10;;;1.90;;
53022;SDS011;38913;44.338;11.206;2023-03-14T08:54:29;4.80;;;2.17;;
53022;SDS011;38913;44.338;11.206;2023-03-14T08:56:55;6.25;;;2.08;;
53022;SDS011;38913;44.338;11.206;2023-03-14T08:59:20;4.43;;;1.60;;
53022;SDS011;38913;44.338;11.206;2023-03-14T09:01:45;4.87;;;1.70;;
53022;SDS011;38913;44.338;11.206;2023-03-14T09:04:10;3.53;;;1.40;;
53022;SDS011;38913;44.338;11.206;2023-03-14T09:06:35;4.37;;;1.53;;
53022;SDS011;38913;44.338;11.206;2023-03-14T09:09:01;3.60;;;1.35;;
53022;SDS011;38913;44.338;11.206;2023-03-14T09:11:26;3.30;;;1.90;;
53022;SDS011;38913;44.338;11.206;2023-03-14T09:13:52;3.33;;;1.33;;
53022;SDS011;38913;44.338;11.206;2023-03-14T09:16:17;3.45;;;1.30;;
53022;SDS011;38913;44.338;11.206;2023-03-14T09:18:42;2.13;;;1.10;;
53022;SDS011;38913;44.338;11.206;2023-03-14T09:21:07;4.23;;;1.10;;
53022;SDS011;38913;44.338;11.206;2023-03-14T09:23:33;3.30;;;1.27;;
53022;SDS011;38913;44.338;11.206;2023-03-14T09:25:59;2.88;;;1.58;;
53022;SDS011;38913;44.338;11.206;2023-03-14T09:28:24;2.50;;;1.10;;
53022;SDS011;38913;44.338;11.206;2023-03-14T09:30:50;2.55;;;0.98;;
53022;SDS011;38913;44.338;11.206;2023-03-14T09:33:15;3.33;;;0.93;;
53022;SDS011;38913;44.338;11.206;2023-03-14T09:35:41;3.83;;;1.10;;
53022;SDS011;38913;44.338;11.206;2023-03-14T09:38:06;2.83;;;0.90;;
53022;SDS011;38913;44.338;11.206;2023-03-14T09:40:33;4.00;;;1.20;;
53022;SDS011;38913;44.338;11.206;2023-03-14T09:42:59;4.97;;;1.02;;
53022;SDS011;38913;44.338;11.206;2023-03-14T09:45:28;2.77;;;0.87;;
53022;SDS011;38913;44.338;11.206;2023-03-14T09:47:54;1.98;;;0.80;;
53022;SDS011;38913;44.338;11.206;2023-03-14T09:50:20;1.35;;;0.88;;
53022;SDS011;38913;44.338;11.206;2023-03-14T09:52:47;1.90;;;0.73;;
53022;SDS011;38913;44.338;11.206;2023-03-14T09:55:20;3.47;;;0.90;;
53022;SDS011;38913;44.338;11.206;2023-03-14T09:57:46;2.35;;;0.90;;
53022;SDS011;38913;44.338;11.206;2023-03-14T10:02:40;2.20;;;0.98;;
53022;SDS011;38913;44.338;11.206;2023-03-14T10:05:19;2.67;;;1.42;;
53022;SDS011;38913;44.338;11.206;2023-03-14T10:07:45;2.85;;;1.65;;
53022;SDS011;38913;44.338;11.206;2023-03-14T10:10:11;2.53;;;0.70;;
53022;SDS011;38913;44.338;11.206;2023-03-14T10:12:38;2.45;;;0.80;;
53022;SDS011;38913;44.338;11.206;2023-03-14T10:15:10;1.48;;;0.60;;
53022;SDS011;38913;44.338;11.206;2023-03-14T10:17:40;3.40;;;0.80;;
53022;SDS011;38913;44.338;11.206;2023-03-14T10:20:06;1.95;;;0.73;;
53022;SDS011;38913;44.338;11.206;2023-03-14T10:22:31;1.67;;;0.73;;
53022;SDS011;38913;44.338;11.206;2023-03-14T10:24:59;0.95;;;0.60;;
53022;SDS011;38913;44.338;11.206;2023-03-14T10:27:30;1.73;;;0.80;;
53022;SDS011;38913;44.338;11.206;2023-03-14T10:29:56;1.95;;;0.70;;
53022;SDS011;38913;44.338;11.206;2023-03-14T10:32:23;3.17;;;0.88;;
53022;SDS011;38913;44.338;11.206;2023-03-14T10:37:36;1.88;;;0.77;;
53022;SDS011;38913;44.338;11.206;2023-03-14T10:42:41;1.10;;;0.73;;
53022;SDS011;38913;44.338;11.206;2023-03-14T10:47:50;2.92;;;1.00;;
53022;SDS011;38913;44.338;11.206;2023-03-14T10:50:33;1.20;;;0.55;;
53022;SDS011;38913;44.338;11.206;2023-03-14T10:53:01;1.95;;;0.75;;
53022;SDS011;38913;44.338;11.206;2023-03-14T10:55:39;1.40;;;0.70;;
53022;SDS011;38913;44.338;11.206;2023-03-14T10:58:04;0.73;;;0.45;;
53022;SDS011;38913;44.338;11.206;2023-03-14T11:00:30;0.68;;;0.50;;
53022;SDS011;38913;44.338;11.206;2023-03-14T11:03:03;2.05;;;0.80;;
53022;SDS011;38913;44.338;11.206;2023-03-14T11:05:31;0.73;;;0.43;;
53022;SDS011;38913;44.338;11.206;2023-03-14T11:08:04;2.38;;;0.55;;
53022;SDS011;38913;44.338;11.206;2023-03-14T11:10:35;0.63;;;0.47;;
53022;SDS011;38913;44.338;11.206;2023-03-14T11:15:51;0.90;;;0.47;;
53022;SDS011;38913;44.338;11.206;2023-03-14T11:18:22;1.35;;;0.60;;
53022;SDS011;38913;44.338;11.206;2023-03-14T11:28:29;1.55;;;0.55;;
53022;SDS011;38913;44.338;11.206;2023-03-14T11:31:11;3.08;;;0.60;;
53022;SDS011;38913;44.338;11.206;2023-03-14T11:33:44;1.67;;;0.70;;
53022;SDS011;38913;44.338;11.206;2023-03-14T11:36:15;3.45;;;0.70;;
53022;SDS011;38913;44.338;11.206;2023-03-14T11:41:14;2.70;;;0.60;;
53022;SDS011;38913;44.338;11.206;2023-03-14T11:43:40;2.17;;;0.70;;
53022;SDS011;38913;44.338;11.206;2023-03-14T11:46:24;1.48;;;0.80;;
53022;SDS011;38913;44.338;11.206;2023-03-14T11:49:11;1.75;;;0.80;;
53022;SDS011;38913;44.338;11.206;2023-03-14T11:51:39;2.15;;;0.60;;
53022;SDS011;38913;44.338;11.206;2023-03-14T11:54:22;2.97;;;0.77;;
53022;SDS011;38913;44.338;11.206;2023-03-14T11:57:10;2.50;;;0.70;;
53022;SDS011;38913;44.338;11.206;2023-03-14T11:59:44;2.70;;;0.93;;
53022;SDS011;38913;44.338;11.206;2023-03-14T12:10:29;3.95;;;1.00;;
53022;SDS011;38913;44.338;11.206;2023-03-14T12:12:56;1.60;;;0.60;;
53022;SDS011;38913;44.338;11.206;2023-03-14T12:15:22;1.92;;;0.60;;
53022;SDS011;38913;44.338;11.206;2023-03-14T12:17:52;1.63;;;0.70;;
53022;SDS011;38913;44.338;11.206;2023-03-14T12:20:22;2.75;;;0.63;;
53022;SDS011;38913;44.338;11.206;2023-03-14T12:22:49;2.58;;;0.65;;
53022;SDS011;38913;44.338;11.206;2023-03-14T12:25:16;3.05;;;1.00;;
53022;SDS011;38913;44.338;11.206;2023-03-14T12:35:37;1.77;;;0.63;;
53022;SDS011;38913;44.338;11.206;2023-03-14T12:38:03;2.67;;;0.80;;
53022;SDS011;38913;44.338;11.206;2023-03-14T12:40:31;3.90;;;1.00;;
53022;SDS011;38913;44.338;11.206;2023-03-14T12:42:58;1.55;;;0.50;;
53022;SDS011;38913;44.338;11.206;2023-03-14T12:45:30;1.92;;;0.60;;
53022;SDS011;38913;44.338;11.206;2023-03-14T12:48:00;1.48;;;0.50;;
53022;SDS011;38913;44.338;11.206;2023-03-14T12:50:38;2.10;;;0.50;;
53022;SDS011;38913;44.338;11.206;2023-03-14T12:55:35;2.05;;;0.50;;
53022;SDS011;38913;44.338;11.206;2023-03-14T12:58:04;1.27;;;0.45;;
53022;SDS011;38913;44.338;11.206;2023-03-14T13:00:31;1.42;;;0.50;;
53022;SDS011;38913;44.338;11.206;2023-03-14T13:03:00;1.42;;;0.60;;
53022;SDS011;38913;44.338;11.206;2023-03-14T13:05:27;1.98;;;0.43;;
53022;SDS011;38913;44.338;11.206;2023-03-14T13:10:20;2.37;;;0.87;;
53022;SDS011;38913;44.338;11.206;2023-03-14T13:12:48;2.08;;;0.47;;
53022;SDS011;38913;44.338;11.206;2023-03-14T13:15:31;2.45;;;0.80;;
53022;SDS011;38913;44.338;11.206;2023-03-14T13:18:17;5.03;;;0.60;;
53022;SDS011;38913;44.338;11.206;2023-03-14T13:20:55;4.43;;;1.10;;
53022;SDS011;38913;44.338;11.206;2023-03-14T13:23:24;2.75;;;0.70;;
53022;SDS011;38913;44.338;11.206;2023-03-14T13:25:49;2.03;;;0.63;;
53022;SDS011;38913;44.338;11.206;2023-03-14T13:28:15;1.23;;;0.50;;
53022;SDS011;38913;44.338;11.206;2023-03-14T13:30:45;3.10;;;0.73;;
53022;SDS011;38913;44.338;11.206;2023-03-14T13:33:12;1.55;;;0.60;;
53022;SDS011;38913;44.338;11.206;2023-03-14T13:35:38;4.63;;;1.17;;
53022;SDS011;38913;44.338;11.206;2023-03-14T13:38:04;1.58;;;0.60;;
53022;SDS011;38913;44.338;11.206;2023-03-14T13:40:30;3.42;;;0.70;;
53022;SDS011;38913;44.338;11.206;2023-03-14T13:43:01;1.45;;;0.70;;
53022;SDS011;38913;44.338;11.206;2023-03-14T13:45:27;2.85;;;0.88;;
53022;SDS011;38913;44.338;11.206;2023-03-14T13:47:52;2.93;;;0.70;;
53022;SDS011;38913;44.338;11.206;2023-03-14T13:50:17;2.80;;;0.75;;
53022;SDS011;38913;44.338;11.206;2023-03-14T13:52:44;2.20;;;0.70;;
53022;SDS011;38913;44.338;11.206;2023-03-14T13:55:16;2.05;;;0.93;;
53022;SDS011;38913;44.338;11.206;2023-03-14T13:57:43;3.28;;;0.70;;
53022;SDS011;38913;44.338;11.206;2023-03-14T14:00:17;2.35;;;0.80;;
53022;SDS011;38913;44.338;11.206;2023-03-14T14:02:43;2.63;;;0.90;;
53022;SDS011;38913;44.338;11.206;2023-03-14T14:05:10;4.30;;;0.70;;
53022;SDS011;38913;44.338;11.206;2023-03-14T14:07:35;3.20;;;0.85;;
53022;SDS011;38913;44.338;11.206;2023-03-14T14:10:02;1.25;;;0.70;;
53022;SDS011;38913;44.338;11.206;2023-03-14T14:12:30;2.03;;;0.90;;
53022;SDS011;38913;44.338;11.206;2023-03-14T14:15:06;3.35;;;0.85;;
53022;SDS011;38913;44.338;11.206;2023-03-14T14:17:50;2.47;;;0.70;;
53022;SDS011;38913;44.338;11.206;2023-03-14T14:20:20;3.03;;;1.10;;
53022;SDS011;38913;44.338;11.206;2023-03-14T14:22:46;3.78;;;1.10;;
53022;SDS011;38913;44.338;11.206;2023-03-14T14:25:15;3.33;;;2.45;;
53022;SDS011;38913;44.338;11.206;2023-03-14T14:27:41;8.80;;;3.70;;
53022;SDS011;38913;44.338;11.206;2023-03-14T14:32:45;10.82;;;3.95;;
53022;SDS011;38913;44.338;11.206;2023-03-14T14:35:22;6.53;;;3.80;;
53022;SDS011;38913;44.338;11.206;2023-03-14T14:37:47;5.22;;;3.75;;
53022;SDS011;38913;44.338;11.206;2023-03-14T14:40:17;5.57;;;3.30;;
53022;SDS011;38913;44.338;11.206;2023-03-14T14:42:43;8.13;;;4.10;;
53022;SDS011;38913;44.338;11.206;2023-03-14T14:45:13;6.85;;;4.35;;
53022;SDS011;38913;44.338;11.206;2023-03-14T14:47:47;5.80;;;4.30;;
53022;SDS011;38913;44.338;11.206;2023-03-14T14:50:20;8.48;;;2.70;;
53022;SDS011;38913;44.338;11.206;2023-03-14T14:52:46;4.50;;;1.63;;
53022;SDS011;38913;44.338;11.206;2023-03-14T14:55:19;4.75;;;1.40;;
53022;SDS011;38913;44.338;11.206;2023-03-14T14:57:49;5.18;;;1.30;;
53022;SDS011;38913;44.338;11.206;2023-03-14T15:00:19;4.53;;;1.10;;
53022;SDS011;38913;44.338;11.206;2023-03-14T15:02:45;6.03;;;1.33;;
53022;SDS011;38913;44.338;11.206;2023-03-14T15:05:15;5.20;;;1.10;;
53022;SDS011;38913;44.338;11.206;2023-03-14T15:07:40;3.80;;;1.40;;
53022;SDS011;38913;44.338;11.206;2023-03-14T15:10:06;3.53;;;0.83;;
53022;SDS011;38913;44.338;11.206;2023-03-14T15:12:31;4.32;;;1.10;;
53022;SDS011;38913;44.338;11.206;2023-03-14T15:14:56;3.57;;;1.23;;
53022;SDS011;38913;44.338;11.206;2023-03-14T15:17:22;4.45;;;1.52;;
53022;SDS011;38913;44.338;11.206;2023-03-14T15:19:48;5.38;;;2.05;;
53022;SDS011;38913;44.338;11.206;2023-03-14T15:22:13;8.85;;;2.33;;
53022;SDS011;38913;44.338;11.206;2023-03-14T15:24:39;7.13;;;2.33;;